createdAt,value
2019-04-27T00:00:49.825Z,0.00
2019-04-27T00:01:49.805Z,0.00
2019-04-27T00:02:49.788Z,0.00
2019-04-27T00:03:49.774Z,0.00
2019-04-27T00:04:52.857Z,0.00
2019-04-27T00:05:49.737Z,0.00
2019-04-27T00:06:49.721Z,0.00
2019-04-27T00:07:51.411Z,0.00
2019-04-27T00:08:49.691Z,0.00
2019-04-27T00:09:51.266Z,0.00
2019-04-27T00:10:49.657Z,0.00
2019-04-27T00:11:49.637Z,0.00
2019-04-27T00:12:49.619Z,0.00
2019-04-27T00:13:49.613Z,0.00
2019-04-27T00:14:54.444Z,0.00
2019-04-27T00:15:49.575Z,0.00
2019-04-27T00:16:50.799Z,0.00
2019-04-27T00:17:49.696Z,0.00
2019-04-27T00:18:53.755Z,0.00
2019-04-27T00:19:49.507Z,0.00
2019-04-27T00:20:49.494Z,0.00
2019-04-27T00:21:49.466Z,0.00
2019-04-27T00:22:49.459Z,0.00
2019-04-27T00:23:49.440Z,0.00
2019-04-27T00:24:49.422Z,0.00
2019-04-27T00:25:49.406Z,0.00
2019-04-27T00:26:49.394Z,0.00
2019-04-27T00:27:49.376Z,0.00
2019-04-27T00:28:49.360Z,0.00
2019-04-27T00:29:49.341Z,0.00
2019-04-27T00:30:49.321Z,0.00
2019-04-27T00:31:49.309Z,0.00
2019-04-27T00:32:49.296Z,0.00
2019-04-27T00:33:49.285Z,0.00
2019-04-27T00:34:49.265Z,0.00
2019-04-27T00:35:49.252Z,0.00
2019-04-27T00:36:49.223Z,0.00
2019-04-27T00:37:49.203Z,0.00
2019-04-27T00:38:49.189Z,0.00
2019-04-27T00:39:49.196Z,0.00
2019-04-27T00:40:49.159Z,0.00
2019-04-27T00:41:49.139Z,0.00
2019-04-27T00:42:49.124Z,0.00
2019-04-27T00:43:49.113Z,0.00
2019-04-27T00:44:49.091Z,0.00
2019-04-27T00:45:49.076Z,0.00
2019-04-27T00:46:49.067Z,0.00
2019-04-27T00:47:59.113Z,0.00
2019-04-27T00:48:49.024Z,0.00
2019-04-27T00:49:49.011Z,0.00
2019-04-27T00:50:48.988Z,0.00
2019-04-27T00:51:48.981Z,0.00
2019-04-27T00:52:48.959Z,0.00
2019-04-27T00:53:48.944Z,0.00
2019-04-27T00:54:48.924Z,0.00
2019-04-27T00:55:48.916Z,0.00
2019-04-27T00:56:48.888Z,0.00
2019-04-27T00:57:48.881Z,0.00
2019-04-27T00:58:48.860Z,0.00
2019-04-27T00:59:48.839Z,0.00
2019-04-27T01:00:48.828Z,0.00
2019-04-27T01:01:48.810Z,0.00
2019-04-27T01:02:48.795Z,0.00
2019-04-27T01:03:48.778Z,0.00
2019-04-27T01:04:48.761Z,0.00
2019-04-27T01:05:48.741Z,0.00
2019-04-27T01:06:48.731Z,0.00
2019-04-27T01:07:48.713Z,0.00
2019-04-27T01:08:48.691Z,0.00
2019-04-27T01:09:48.677Z,0.00
2019-04-27T01:10:48.654Z,0.00
2019-04-27T01:11:48.647Z,0.00
2019-04-27T01:12:48.628Z,0.00
2019-04-27T01:13:48.612Z,0.00
2019-04-27T01:14:48.594Z,0.00
2019-04-27T01:15:48.585Z,0.00
2019-04-27T01:16:49.229Z,0.00
2019-04-27T01:17:49.047Z,0.00
2019-04-27T01:18:48.936Z,0.00
2019-04-27T01:19:49.362Z,0.00
2019-04-27T01:20:48.918Z,0.00
2019-04-27T01:21:49.694Z,0.00
2019-04-27T01:22:49.250Z,0.00
2019-04-27T01:23:48.796Z,0.00
2019-04-27T01:24:49.242Z,0.00
2019-04-27T01:25:48.828Z,0.00
2019-04-27T01:26:49.945Z,0.00
2019-04-27T01:27:49.414Z,0.00
2019-04-27T01:28:49.011Z,0.00
2019-04-27T01:29:49.981Z,0.00
2019-04-27T01:30:49.008Z,0.00
2019-04-27T01:31:48.711Z,0.00
2019-04-27T01:32:49.383Z,0.00
2019-04-27T01:33:48.899Z,0.00
2019-04-27T01:34:49.411Z,0.00
2019-04-27T01:35:49.158Z,0.00
2019-04-27T01:36:49.293Z,0.00
2019-04-27T01:37:48.759Z,0.00
2019-04-27T01:38:49.663Z,0.00
2019-04-27T01:39:48.595Z,0.00
2019-04-27T01:40:49.822Z,0.00
2019-04-27T01:41:49.087Z,0.00
2019-04-27T01:42:48.417Z,0.00
2019-04-27T01:43:49.094Z,0.00
2019-04-27T01:44:50.878Z,0.00
2019-04-27T01:45:48.828Z,0.00
2019-04-27T01:46:48.711Z,0.00
2019-04-27T01:47:49.246Z,0.00
2019-04-27T01:48:49.015Z,0.00
2019-04-27T01:49:49.513Z,0.00
2019-04-27T01:50:49.201Z,0.00
2019-04-27T01:51:49.235Z,0.00
2019-04-27T01:52:48.674Z,0.00
2019-04-27T01:53:49.210Z,0.00
2019-04-27T01:54:49.481Z,0.00
2019-04-27T01:55:49.148Z,0.00
2019-04-27T01:56:49.280Z,0.00
2019-04-27T01:57:48.748Z,0.00
2019-04-27T01:58:49.404Z,0.00
2019-04-27T01:59:48.920Z,0.00
2019-04-27T02:00:49.400Z,0.00
2019-04-27T02:01:48.936Z,0.00
2019-04-27T02:02:49.382Z,0.00
2019-04-27T02:03:48.900Z,0.00
2019-04-27T02:04:49.351Z,0.00
2019-04-27T02:05:49.265Z,0.00
2019-04-27T02:06:48.724Z,0.00
2019-04-27T02:07:49.111Z,0.00
2019-04-27T02:08:49.223Z,0.00
2019-04-27T02:09:48.678Z,0.00
2019-04-27T02:10:49.530Z,0.00
2019-04-27T02:11:48.965Z,0.00
2019-04-27T02:12:48.681Z,0.00
2019-04-27T02:13:48.811Z,0.00
2019-04-27T02:14:49.100Z,0.00
2019-04-27T02:15:48.652Z,0.00
2019-04-27T02:16:49.176Z,0.00
2019-04-27T02:17:49.026Z,0.00
2019-04-27T02:18:48.884Z,0.00
2019-04-27T02:19:49.285Z,0.00
2019-04-27T02:20:49.040Z,0.00
2019-04-27T02:21:51.108Z,0.00
2019-04-27T02:22:48.514Z,0.00
2019-04-27T02:23:47.434Z,0.00
2019-04-27T02:24:49.105Z,0.00
2019-04-27T02:25:47.404Z,0.00
2019-04-27T02:26:47.385Z,0.00
2019-04-27T02:27:49.016Z,0.00
2019-04-27T02:28:47.358Z,0.00
2019-04-27T02:29:48.739Z,0.00
2019-04-27T02:30:47.320Z,0.00
2019-04-27T02:31:49.895Z,0.00
2019-04-27T02:32:49.740Z,0.00
2019-04-27T02:33:47.265Z,0.00
2019-04-27T02:34:47.257Z,0.00
2019-04-27T02:35:50.208Z,0.00
2019-04-27T02:36:47.217Z,0.00
2019-04-27T02:37:47.199Z,0.00
2019-04-27T02:38:49.111Z,0.00
2019-04-27T02:39:47.163Z,0.00
2019-04-27T02:40:49.446Z,0.00
2019-04-27T02:41:47.134Z,0.00
2019-04-27T02:42:47.125Z,0.00
2019-04-27T02:43:49.590Z,0.00
2019-04-27T02:44:49.130Z,0.00
2019-04-27T02:45:47.064Z,0.00
2019-04-27T02:46:49.940Z,0.00
2019-04-27T02:47:49.052Z,0.00
2019-04-27T02:48:58.997Z,0.00
2019-04-27T02:49:47.010Z,0.00
2019-04-27T02:50:46.983Z,0.00
2019-04-27T02:51:49.391Z,0.00
2019-04-27T02:52:46.942Z,0.00
2019-04-27T02:53:46.943Z,0.00
2019-04-27T02:54:46.909Z,0.00
2019-04-27T02:55:46.895Z,0.00
2019-04-27T02:56:46.877Z,0.00
2019-04-27T02:57:46.865Z,0.00
2019-04-27T02:58:49.360Z,0.00
2019-04-27T02:59:46.825Z,0.00
2019-04-27T03:00:46.815Z,0.00
2019-04-27T03:01:46.990Z,0.00
2019-04-27T03:02:46.774Z,0.00
2019-04-27T03:03:46.758Z,0.00
2019-04-27T03:04:46.739Z,0.00
2019-04-27T03:05:46.720Z,0.00
2019-04-27T03:06:46.711Z,0.00
2019-04-27T03:07:46.688Z,0.00
2019-04-27T03:08:50.693Z,0.00
2019-04-27T03:09:46.655Z,0.00
2019-04-27T03:10:46.645Z,0.00
2019-04-27T03:11:46.626Z,0.00
2019-04-27T03:12:46.607Z,0.00
2019-04-27T03:13:51.707Z,0.00
2019-04-27T03:14:46.573Z,0.00
2019-04-27T03:15:46.549Z,0.00
2019-04-27T03:16:46.539Z,0.00
2019-04-27T03:17:46.520Z,0.00
2019-04-27T03:18:46.504Z,0.00
2019-04-27T03:19:46.485Z,0.00
2019-04-27T03:20:46.474Z,0.00
2019-04-27T03:21:46.463Z,0.00
2019-04-27T03:22:46.446Z,0.00
2019-04-27T03:23:46.419Z,0.00
2019-04-27T03:24:46.405Z,0.00
2019-04-27T03:25:46.381Z,0.00
2019-04-27T03:26:46.365Z,0.00
2019-04-27T03:27:46.346Z,0.00
2019-04-27T03:28:46.334Z,0.00
2019-04-27T03:29:46.321Z,0.00
2019-04-27T03:30:46.307Z,0.00
2019-04-27T03:31:48.039Z,0.00
2019-04-27T03:32:46.271Z,0.00
2019-04-27T03:33:46.257Z,0.00
2019-04-27T03:34:46.228Z,0.00
2019-04-27T03:35:46.222Z,0.00
2019-04-27T03:36:46.198Z,0.00
2019-04-27T03:37:46.195Z,0.00
2019-04-27T03:38:46.164Z,0.00
2019-04-27T03:39:46.149Z,0.00
2019-04-27T03:40:46.130Z,0.00
2019-04-27T03:41:46.116Z,0.00
2019-04-27T03:42:46.094Z,0.00
2019-04-27T03:43:46.077Z,0.00
2019-04-27T03:44:46.064Z,0.00
2019-04-27T03:45:46.046Z,0.00
2019-04-27T03:46:46.024Z,0.00
2019-04-27T03:47:46.020Z,0.00
2019-04-27T03:48:46.003Z,0.00
2019-04-27T03:49:45.984Z,0.00
2019-04-27T03:50:45.960Z,0.00
2019-04-27T03:51:45.949Z,0.00
2019-04-27T03:52:45.924Z,0.00
2019-04-27T03:53:45.903Z,0.00
2019-04-27T03:54:45.892Z,0.00
2019-04-27T03:55:45.874Z,0.00
2019-04-27T03:56:45.856Z,0.00
2019-04-27T03:57:45.835Z,0.00
2019-04-27T03:58:45.840Z,0.00
2019-04-27T03:59:45.804Z,0.00
2019-04-27T04:00:45.792Z,0.00
2019-04-27T04:01:45.767Z,0.00
2019-04-27T04:02:45.756Z,0.00
2019-04-27T04:03:45.738Z,0.00
2019-04-27T04:04:45.732Z,0.00
2019-04-27T04:05:45.701Z,0.00
2019-04-27T04:06:45.682Z,0.00
2019-04-27T04:07:45.664Z,0.00
2019-04-27T04:08:45.648Z,0.00
2019-04-27T04:09:45.633Z,0.00
2019-04-27T04:10:45.615Z,0.00
2019-04-27T04:11:45.607Z,0.00
2019-04-27T04:12:45.583Z,0.00
2019-04-27T04:13:45.565Z,0.00
2019-04-27T04:14:45.546Z,0.00
2019-04-27T04:15:45.567Z,0.00
2019-04-27T04:16:45.514Z,0.00
2019-04-27T04:17:45.501Z,0.00
2019-04-27T04:18:45.478Z,0.00
2019-04-27T04:19:54.302Z,0.00
2019-04-27T04:20:45.444Z,0.00
2019-04-27T04:21:45.432Z,0.00
2019-04-27T04:22:45.417Z,0.00
2019-04-27T04:23:45.393Z,0.00
2019-04-27T04:24:45.379Z,0.00
2019-04-27T04:25:45.366Z,0.00
2019-04-27T04:26:45.346Z,0.00
2019-04-27T04:27:45.327Z,0.00
2019-04-27T04:28:45.307Z,0.00
2019-04-27T04:29:45.290Z,0.00
2019-04-27T04:30:45.275Z,0.00
2019-04-27T04:31:45.267Z,0.00
2019-04-27T04:32:45.238Z,0.00
2019-04-27T04:33:45.222Z,0.00
2019-04-27T04:34:45.207Z,0.00
2019-04-27T04:35:45.188Z,0.00
2019-04-27T04:36:45.172Z,0.00
2019-04-27T04:37:45.153Z,0.00
2019-04-27T04:38:45.137Z,0.00
2019-04-27T04:39:45.124Z,0.00
2019-04-27T04:40:45.097Z,0.00
2019-04-27T04:41:45.093Z,0.00
2019-04-27T04:42:45.067Z,5.63
2019-04-27T04:43:45.052Z,5.63
2019-04-27T04:44:45.029Z,5.63
2019-04-27T04:45:45.018Z,5.63
2019-04-27T04:46:45.008Z,5.63
2019-04-27T04:47:44.988Z,5.63
2019-04-27T04:48:44.970Z,5.63
2019-04-27T04:49:44.949Z,5.63
2019-04-27T04:50:44.941Z,5.63
2019-04-27T04:51:44.918Z,5.63
2019-04-27T04:52:44.905Z,5.63
2019-04-27T04:53:44.888Z,5.63
2019-04-27T04:54:44.873Z,5.63
2019-04-27T04:55:44.845Z,5.63
2019-04-27T04:56:44.833Z,5.63
2019-04-27T04:57:44.817Z,5.63
2019-04-27T04:58:44.801Z,5.63
2019-04-27T04:59:44.784Z,5.63
2019-04-27T05:00:44.765Z,5.63
2019-04-27T05:01:44.741Z,5.63
2019-04-27T05:02:44.758Z,5.63
2019-04-27T05:03:44.711Z,5.63
2019-04-27T05:04:44.692Z,5.63
2019-04-27T05:05:44.678Z,5.63
2019-04-27T05:06:44.658Z,5.63
2019-04-27T05:07:44.650Z,5.63
2019-04-27T05:08:44.624Z,5.63
2019-04-27T05:09:44.609Z,5.63
2019-04-27T05:10:44.590Z,5.63
2019-04-27T05:11:44.575Z,11.25
2019-04-27T05:12:44.557Z,11.25
2019-04-27T05:13:44.542Z,11.25
2019-04-27T05:14:44.522Z,11.25
2019-04-27T05:15:44.509Z,11.25
2019-04-27T05:16:44.494Z,11.25
2019-04-27T05:17:44.473Z,11.25
2019-04-27T05:18:44.458Z,11.25
2019-04-27T05:19:44.443Z,11.25
2019-04-27T05:20:44.425Z,11.25
2019-04-27T05:21:44.409Z,11.25
2019-04-27T05:22:44.399Z,11.25
2019-04-27T05:23:44.375Z,11.25
2019-04-27T05:24:44.358Z,11.25
2019-04-27T05:25:44.343Z,16.88
2019-04-27T05:26:44.324Z,16.88
2019-04-27T05:27:44.308Z,16.88
2019-04-27T05:28:44.284Z,22.50
2019-04-27T05:29:44.276Z,22.50
2019-04-27T05:30:44.255Z,28.13
2019-04-27T05:31:44.240Z,28.13
2019-04-27T05:32:44.223Z,28.13
2019-04-27T05:33:44.217Z,33.75
2019-04-27T05:34:44.195Z,33.75
2019-04-27T05:35:44.175Z,33.75
2019-04-27T05:36:48.762Z,39.38
2019-04-27T05:37:44.444Z,39.38
2019-04-27T05:38:45.932Z,45.00
2019-04-27T05:39:44.113Z,45.00
2019-04-27T05:40:44.095Z,50.63
2019-04-27T05:41:44.074Z,50.63
2019-04-27T05:42:44.064Z,56.25
2019-04-27T05:43:44.040Z,61.88
2019-04-27T05:44:45.690Z,61.88
2019-04-27T05:45:44.010Z,67.50
2019-04-27T05:46:43.990Z,67.50
2019-04-27T05:47:50.192Z,73.13
2019-04-27T05:48:43.958Z,73.13
2019-04-27T05:49:44.561Z,73.13
2019-04-27T05:50:45.960Z,73.13
2019-04-27T05:51:43.909Z,73.13
2019-04-27T05:52:43.895Z,67.50
2019-04-27T05:53:43.881Z,67.50
2019-04-27T05:54:43.862Z,67.50
2019-04-27T05:55:43.849Z,67.50
2019-04-27T05:56:43.829Z,61.88
2019-04-27T05:57:43.812Z,61.88
2019-04-27T05:58:43.802Z,61.88
2019-04-27T05:59:43.782Z,61.88
2019-04-27T06:00:43.766Z,61.88
2019-04-27T06:01:43.749Z,67.50
2019-04-27T06:02:43.733Z,67.50
2019-04-27T06:03:43.714Z,67.50
2019-04-27T06:04:43.708Z,73.13
2019-04-27T06:05:43.685Z,78.75
2019-04-27T06:06:43.662Z,78.75
2019-04-27T06:07:43.651Z,84.38
2019-04-27T06:08:43.636Z,90.00
2019-04-27T06:09:43.625Z,90.00
2019-04-27T06:10:43.603Z,95.63
2019-04-27T06:11:43.590Z,95.63
2019-04-27T06:12:43.570Z,95.63
2019-04-27T06:13:43.549Z,95.63
2019-04-27T06:14:43.531Z,95.63
2019-04-27T06:15:43.522Z,95.63
2019-04-27T06:16:43.505Z,95.63
2019-04-27T06:17:43.488Z,90.00
2019-04-27T06:18:43.470Z,90.00
2019-04-27T06:19:43.957Z,84.38
2019-04-27T06:20:53.450Z,84.38
2019-04-27T06:21:43.419Z,84.38
2019-04-27T06:22:43.413Z,84.38
2019-04-27T06:23:43.387Z,84.38
2019-04-27T06:24:43.380Z,78.75
2019-04-27T06:25:43.358Z,84.38
2019-04-27T06:26:43.345Z,84.38
2019-04-27T06:27:43.327Z,84.38
2019-04-27T06:28:43.308Z,84.38
2019-04-27T06:29:43.296Z,90.00
2019-04-27T06:30:43.278Z,90.00
2019-04-27T06:31:43.280Z,84.38
2019-04-27T06:32:43.240Z,84.38
2019-04-27T06:33:43.229Z,90.00
2019-04-27T06:34:43.222Z,90.00
2019-04-27T06:35:43.199Z,90.00
2019-04-27T06:36:43.178Z,90.00
2019-04-27T06:37:43.171Z,95.63
2019-04-27T06:38:43.149Z,90.00
2019-04-27T06:39:43.129Z,90.00
2019-04-27T06:40:43.118Z,90.00
2019-04-27T06:41:43.099Z,90.00
2019-04-27T06:42:43.085Z,90.00
2019-04-27T06:43:43.067Z,90.00
2019-04-27T06:44:43.049Z,90.00
2019-04-27T06:45:43.041Z,90.00
2019-04-27T06:46:43.028Z,90.00
2019-04-27T06:47:43.007Z,84.38
2019-04-27T06:48:43.000Z,84.38
2019-04-27T06:49:42.972Z,78.75
2019-04-27T06:50:42.960Z,73.13
2019-04-27T06:51:42.946Z,73.13
2019-04-27T06:52:42.930Z,67.50
2019-04-27T06:53:42.907Z,61.88
2019-04-27T06:54:42.893Z,67.50
2019-04-27T06:55:42.883Z,67.50
2019-04-27T06:56:42.864Z,67.50
2019-04-27T06:57:42.855Z,67.50
2019-04-27T06:58:42.833Z,67.50
2019-04-27T06:59:42.813Z,67.50
2019-04-27T07:00:42.801Z,73.13
2019-04-27T07:01:42.784Z,73.13
2019-04-27T07:02:42.770Z,73.13
2019-04-27T07:03:42.753Z,73.13
2019-04-27T07:04:42.742Z,73.13
2019-04-27T07:05:42.721Z,67.50
2019-04-27T07:06:53.271Z,67.50
2019-04-27T07:07:42.692Z,67.50
2019-04-27T07:08:42.678Z,67.50
2019-04-27T07:09:42.659Z,67.50
2019-04-27T07:10:42.646Z,73.13
2019-04-27T07:11:42.630Z,73.13
2019-04-27T07:12:42.608Z,73.13
2019-04-27T07:13:42.601Z,78.75
2019-04-27T07:14:52.371Z,78.75
2019-04-27T07:15:42.566Z,78.75
2019-04-27T07:16:42.550Z,78.75
2019-04-27T07:17:42.533Z,78.75
2019-04-27T07:18:42.516Z,78.75
2019-04-27T07:19:42.501Z,84.38
2019-04-27T07:20:42.486Z,84.38
2019-04-27T07:21:42.469Z,84.38
2019-04-27T07:22:42.459Z,90.00
2019-04-27T07:23:42.441Z,95.63
2019-04-27T07:24:42.427Z,101.25
2019-04-27T07:25:42.412Z,101.25
2019-04-27T07:26:42.398Z,112.50
2019-04-27T07:27:42.381Z,123.75
2019-04-27T07:28:42.362Z,135.00
2019-04-27T07:29:44.591Z,146.25
2019-04-27T07:30:42.330Z,151.88
2019-04-27T07:31:42.318Z,151.88
2019-04-27T07:32:42.296Z,157.50
2019-04-27T07:33:42.288Z,157.50
2019-04-27T07:34:42.268Z,151.88
2019-04-27T07:35:42.259Z,151.88
2019-04-27T07:36:42.237Z,151.88
2019-04-27T07:37:42.229Z,146.25
2019-04-27T07:38:42.219Z,146.25
2019-04-27T07:39:42.194Z,140.63
2019-04-27T07:40:42.191Z,135.00
2019-04-27T07:41:42.165Z,135.00
2019-04-27T07:42:42.151Z,135.00
2019-04-27T07:43:42.135Z,140.63
2019-04-27T07:44:42.121Z,140.63
2019-04-27T07:45:42.121Z,146.25
2019-04-27T07:46:42.088Z,151.88
2019-04-27T07:47:42.083Z,157.50
2019-04-27T07:48:42.063Z,151.88
2019-04-27T07:49:42.048Z,157.50
2019-04-27T07:50:42.032Z,157.50
2019-04-27T07:51:42.017Z,163.13
2019-04-27T07:52:42.002Z,168.75
2019-04-27T07:53:41.977Z,174.38
2019-04-27T07:54:41.977Z,196.88
2019-04-27T07:55:41.959Z,196.88
2019-04-27T07:56:41.939Z,180.00
2019-04-27T07:57:41.926Z,174.38
2019-04-27T07:58:41.912Z,174.38
2019-04-27T07:59:42.217Z,174.38
2019-04-27T08:00:41.879Z,180.00
2019-04-27T08:01:41.869Z,196.88
2019-04-27T08:02:41.862Z,174.38
2019-04-27T08:03:41.838Z,168.75
2019-04-27T08:04:41.830Z,163.13
2019-04-27T08:05:41.806Z,163.13
2019-04-27T08:06:41.805Z,163.13
2019-04-27T08:07:41.777Z,168.75
2019-04-27T08:08:41.767Z,168.75
2019-04-27T08:09:41.751Z,168.75
2019-04-27T08:10:41.735Z,163.13
2019-04-27T08:11:41.723Z,163.13
2019-04-27T08:12:41.702Z,168.75
2019-04-27T08:13:41.695Z,157.50
2019-04-27T08:14:41.681Z,157.50
2019-04-27T08:15:41.665Z,151.88
2019-04-27T08:16:41.651Z,151.88
2019-04-27T08:17:42.925Z,196.88
2019-04-27T08:18:41.628Z,202.50
2019-04-27T08:19:41.606Z,213.75
2019-04-27T08:20:41.600Z,219.38
2019-04-27T08:21:44.503Z,202.50
2019-04-27T08:22:41.563Z,191.25
2019-04-27T08:23:41.559Z,185.63
2019-04-27T08:24:41.530Z,157.50
2019-04-27T08:25:41.523Z,146.25
2019-04-27T08:26:41.514Z,157.50
2019-04-27T08:27:41.493Z,185.63
2019-04-27T08:28:41.501Z,168.75
2019-04-27T08:29:41.467Z,180.00
2019-04-27T08:30:41.456Z,151.88
2019-04-27T08:31:41.436Z,146.25
2019-04-27T08:32:41.661Z,157.50
2019-04-27T08:33:41.403Z,286.88
2019-04-27T08:34:41.390Z,219.38
2019-04-27T08:35:41.380Z,191.25
2019-04-27T08:36:41.356Z,236.25
2019-04-27T08:37:41.349Z,208.13
2019-04-27T08:38:41.339Z,225.00
2019-04-27T08:39:41.324Z,213.75
2019-04-27T08:40:41.314Z,241.88
2019-04-27T08:41:41.291Z,270.00
2019-04-27T08:42:41.286Z,236.25
2019-04-27T08:43:41.260Z,275.63
2019-04-27T08:44:41.256Z,275.63
2019-04-27T08:45:41.243Z,258.75
2019-04-27T08:46:41.224Z,264.38
2019-04-27T08:47:41.742Z,253.13
2019-04-27T08:48:41.198Z,213.75
2019-04-27T08:49:41.184Z,191.25
2019-04-27T08:50:42.139Z,202.50
2019-04-27T08:51:41.583Z,230.63
2019-04-27T08:52:41.821Z,230.63
2019-04-27T08:53:41.149Z,247.50
2019-04-27T08:54:41.119Z,253.13
2019-04-27T08:55:41.099Z,236.25
2019-04-27T08:56:41.087Z,270.00
2019-04-27T08:57:41.077Z,258.75
2019-04-27T08:58:41.064Z,180.00
2019-04-27T08:59:41.049Z,163.13
2019-04-27T09:00:41.033Z,157.50
2019-04-27T09:01:41.019Z,146.25
2019-04-27T09:02:46.751Z,146.25
2019-04-27T09:03:40.996Z,140.63
2019-04-27T09:04:40.978Z,146.25
2019-04-27T09:05:40.978Z,151.88
2019-04-27T09:06:40.955Z,157.50
2019-04-27T09:07:40.939Z,174.38
2019-04-27T09:08:41.256Z,185.63
2019-04-27T09:09:40.909Z,180.00
2019-04-27T09:10:40.899Z,191.25
2019-04-27T09:11:40.885Z,191.25
2019-04-27T09:12:41.549Z,196.88
2019-04-27T09:13:41.294Z,191.25
2019-04-27T09:14:40.885Z,230.63
2019-04-27T09:15:40.849Z,213.75
2019-04-27T09:16:40.816Z,196.88
2019-04-27T09:17:40.823Z,191.25
2019-04-27T09:18:41.113Z,196.88
2019-04-27T09:19:40.821Z,180.00
2019-04-27T09:20:40.760Z,168.75
2019-04-27T09:21:40.757Z,168.75
2019-04-27T09:22:40.727Z,213.75
2019-04-27T09:23:40.731Z,241.88
2019-04-27T09:24:40.719Z,191.25
2019-04-27T09:25:47.203Z,241.88
2019-04-27T09:26:40.678Z,202.50
2019-04-27T09:27:40.666Z,225.00
2019-04-27T09:28:40.657Z,196.88
2019-04-27T09:29:40.636Z,208.13
2019-04-27T09:30:40.629Z,196.88
2019-04-27T09:31:40.621Z,264.38
2019-04-27T09:32:40.759Z,219.38
2019-04-27T09:33:40.584Z,219.38
2019-04-27T09:34:40.568Z,213.75
2019-04-27T09:35:40.554Z,225.00
2019-04-27T09:36:40.548Z,253.13
2019-04-27T09:37:40.524Z,236.25
2019-04-27T09:38:40.518Z,225.00
2019-04-27T09:39:40.501Z,202.50
2019-04-27T09:40:40.491Z,168.75
2019-04-27T09:41:40.481Z,151.88
2019-04-27T09:42:40.472Z,146.25
2019-04-27T09:43:40.456Z,146.25
2019-04-27T09:44:40.449Z,151.88
2019-04-27T09:45:40.420Z,151.88
2019-04-27T09:46:40.416Z,140.63
2019-04-27T09:47:40.553Z,135.00
2019-04-27T09:48:40.385Z,123.75
2019-04-27T09:49:40.375Z,123.75
2019-04-27T09:50:40.358Z,123.75
2019-04-27T09:51:40.345Z,118.13
2019-04-27T09:52:40.328Z,118.13
2019-04-27T09:53:40.317Z,118.13
2019-04-27T09:54:40.308Z,118.13
2019-04-27T09:55:40.293Z,118.13
2019-04-27T09:56:40.278Z,118.13
2019-04-27T09:57:40.267Z,118.13
2019-04-27T09:58:40.258Z,123.75
2019-04-27T09:59:40.250Z,129.38
2019-04-27T10:00:40.230Z,129.38
2019-04-27T10:01:40.218Z,140.63
2019-04-27T10:02:40.200Z,123.75
2019-04-27T10:03:40.192Z,112.50
2019-04-27T10:04:40.172Z,112.50
2019-04-27T10:05:40.161Z,112.50
2019-04-27T10:06:40.149Z,118.13
2019-04-27T10:07:40.137Z,140.63
2019-04-27T10:08:40.122Z,123.75
2019-04-27T10:09:40.112Z,123.75
2019-04-27T10:10:40.096Z,129.38
2019-04-27T10:11:40.080Z,140.63
2019-04-27T10:12:40.066Z,264.38
2019-04-27T10:13:40.065Z,213.75
2019-04-27T10:14:40.053Z,168.75
2019-04-27T10:15:40.033Z,146.25
2019-04-27T10:16:40.022Z,163.13
2019-04-27T10:17:40.006Z,163.13
2019-04-27T10:18:39.991Z,157.50
2019-04-27T10:19:39.983Z,146.25
2019-04-27T10:20:41.042Z,146.25
2019-04-27T10:21:39.949Z,185.63
2019-04-27T10:22:43.339Z,151.88
2019-04-27T10:23:39.916Z,135.00
2019-04-27T10:24:39.911Z,129.38
2019-04-27T10:25:39.896Z,123.75
2019-04-27T10:26:39.881Z,123.75
2019-04-27T10:27:39.871Z,118.13
2019-04-27T10:28:39.858Z,112.50
2019-04-27T10:29:39.845Z,106.88
2019-04-27T10:30:39.827Z,101.25
2019-04-27T10:31:39.815Z,101.25
2019-04-27T10:32:42.688Z,101.25
2019-04-27T10:33:39.794Z,106.88
2019-04-27T10:34:39.772Z,106.88
2019-04-27T10:35:39.781Z,106.88
2019-04-27T10:36:39.752Z,101.25
2019-04-27T10:37:39.735Z,106.88
2019-04-27T10:38:39.727Z,101.25
2019-04-27T10:39:39.713Z,95.63
2019-04-27T10:40:39.695Z,90.00
2019-04-27T10:41:39.684Z,84.38
2019-04-27T10:42:39.676Z,78.75
2019-04-27T10:43:39.660Z,73.13
2019-04-27T10:44:39.643Z,73.13
2019-04-27T10:45:39.635Z,73.13
2019-04-27T10:46:39.616Z,73.13
2019-04-27T10:47:39.611Z,73.13
2019-04-27T10:48:39.590Z,73.13
2019-04-27T10:49:39.577Z,73.13
2019-04-27T10:50:39.577Z,78.75
2019-04-27T10:51:39.553Z,78.75
2019-04-27T10:52:52.619Z,78.75
2019-04-27T10:53:39.527Z,78.75
2019-04-27T10:54:39.507Z,78.75
2019-04-27T10:55:39.500Z,84.38
2019-04-27T10:56:39.481Z,95.63
2019-04-27T10:57:39.469Z,95.63
2019-04-27T10:58:39.465Z,90.00
2019-04-27T10:59:39.447Z,90.00
2019-04-27T11:00:39.433Z,84.38
2019-04-27T11:01:39.418Z,84.38
2019-04-27T11:02:39.401Z,78.75
2019-04-27T11:03:39.395Z,78.75
2019-04-27T11:04:39.374Z,78.75
2019-04-27T11:05:39.372Z,78.75
2019-04-27T11:06:39.351Z,84.38
2019-04-27T11:07:39.341Z,84.38
2019-04-27T11:08:39.324Z,78.75
2019-04-27T11:09:39.307Z,73.13
2019-04-27T11:10:39.303Z,67.50
2019-04-27T11:11:39.281Z,61.88
2019-04-27T11:12:39.270Z,56.25
2019-04-27T11:13:39.256Z,56.25
2019-04-27T11:14:39.235Z,56.25
2019-04-27T11:15:39.231Z,56.25
2019-04-27T11:16:39.211Z,56.25
2019-04-27T11:17:39.201Z,56.25
2019-04-27T11:18:39.191Z,56.25
2019-04-27T11:19:39.175Z,56.25
2019-04-27T11:20:39.157Z,56.25
2019-04-27T11:21:39.147Z,56.25
2019-04-27T11:22:39.138Z,56.25
2019-04-27T11:23:39.123Z,56.25
2019-04-27T11:24:39.107Z,56.25
2019-04-27T11:25:39.097Z,61.88
2019-04-27T11:26:39.077Z,61.88
2019-04-27T11:27:39.067Z,61.88
2019-04-27T11:28:39.052Z,61.88
2019-04-27T11:29:39.034Z,61.88
2019-04-27T11:30:39.023Z,61.88
2019-04-27T11:31:39.009Z,61.88
2019-04-27T11:32:38.997Z,61.88
2019-04-27T11:33:38.985Z,61.88
2019-04-27T11:34:38.969Z,61.88
2019-04-27T11:35:38.953Z,67.50
2019-04-27T11:36:38.939Z,67.50
2019-04-27T11:37:38.927Z,67.50
2019-04-27T11:38:38.915Z,67.50
2019-04-27T11:39:38.900Z,67.50
2019-04-27T11:40:38.889Z,61.88
2019-04-27T11:41:38.869Z,61.88
2019-04-27T11:42:38.863Z,56.25
2019-04-27T11:43:38.849Z,56.25
2019-04-27T11:44:38.831Z,50.63
2019-04-27T11:45:38.817Z,50.63
2019-04-27T11:46:38.800Z,50.63
2019-04-27T11:47:38.793Z,50.63
2019-04-27T11:48:38.773Z,50.63
2019-04-27T11:49:38.763Z,50.63
2019-04-27T11:50:38.750Z,45.00
2019-04-27T11:51:38.732Z,45.00
2019-04-27T11:52:38.719Z,45.00
2019-04-27T11:53:38.709Z,45.00
2019-04-27T11:54:38.689Z,39.38
2019-04-27T11:55:38.682Z,39.38
2019-04-27T11:56:38.667Z,39.38
2019-04-27T11:57:38.655Z,39.38
2019-04-27T11:58:38.644Z,33.75
2019-04-27T11:59:38.630Z,33.75
2019-04-27T12:00:38.616Z,33.75
2019-04-27T12:01:38.617Z,33.75
2019-04-27T12:02:38.583Z,33.75
2019-04-27T12:03:38.577Z,33.75
2019-04-27T12:04:38.565Z,33.75
2019-04-27T12:05:38.543Z,33.75
2019-04-27T12:06:38.541Z,33.75
2019-04-27T12:07:38.525Z,33.75
2019-04-27T12:08:38.511Z,39.38
2019-04-27T12:09:38.493Z,39.38
2019-04-27T12:10:38.478Z,39.38
2019-04-27T12:11:38.478Z,39.38
2019-04-27T12:12:38.453Z,39.38
2019-04-27T12:13:38.437Z,33.75
2019-04-27T12:14:38.422Z,33.75
2019-04-27T12:15:38.411Z,33.75
2019-04-27T12:16:38.405Z,33.75
2019-04-27T12:17:38.380Z,33.75
2019-04-27T12:18:38.364Z,33.75
2019-04-27T12:19:38.359Z,33.75
2019-04-27T12:20:38.337Z,33.75
2019-04-27T12:21:38.327Z,33.75
2019-04-27T12:22:38.309Z,33.75
2019-04-27T12:23:41.235Z,33.75
2019-04-27T12:24:38.285Z,33.75
2019-04-27T12:25:38.273Z,39.38
2019-04-27T12:26:38.254Z,39.38
2019-04-27T12:27:38.243Z,39.38
2019-04-27T12:28:38.231Z,39.38
2019-04-27T12:29:38.220Z,39.38
2019-04-27T12:30:38.201Z,39.38
2019-04-27T12:31:38.184Z,39.38
2019-04-27T12:32:38.173Z,39.38
2019-04-27T12:33:38.170Z,39.38
2019-04-27T12:34:38.144Z,39.38
2019-04-27T12:35:38.130Z,39.38
2019-04-27T12:36:38.123Z,39.38
2019-04-27T12:37:38.102Z,39.38
2019-04-27T12:38:38.095Z,39.38
2019-04-27T12:39:38.075Z,39.38
2019-04-27T12:40:38.061Z,45.00
2019-04-27T12:41:38.050Z,45.00
2019-04-27T12:42:38.034Z,50.63
2019-04-27T12:43:38.019Z,50.63
2019-04-27T12:44:42.220Z,50.63
2019-04-27T12:45:41.023Z,50.63
2019-04-27T12:46:37.974Z,45.00
2019-04-27T12:47:37.961Z,50.63
2019-04-27T12:48:37.942Z,50.63
2019-04-27T12:49:37.930Z,50.63
2019-04-27T12:50:37.920Z,50.63
2019-04-27T12:51:37.902Z,50.63
2019-04-27T12:52:37.888Z,50.63
2019-04-27T12:53:49.865Z,50.63
2019-04-27T12:54:37.863Z,50.63
2019-04-27T12:55:37.851Z,50.63
2019-04-27T12:56:37.829Z,56.25